sensor_id;sensor_type;location;lat;lon;timestamp;pressure;altitude;pressure_sealevel;temperature;humidity
10127;BME280;13080;42.608;23.362;2023-09-19T00:00:31;154622.41;;;13.90;85.70
10127;BME280;13080;42.608;23.362;2023-09-19T00:02:59;154608.06;;;13.85;86.07
10127;BME280;13080;42.608;23.362;2023-09-19T00:05:26;154608.06;;;13.85;87.05
10127;BME280;13080;42.608;23.362;2023-09-19T00:07:53;154583.34;;;13.75;87.18
10127;BME280;13080;42.608;23.362;2023-09-19T00:10:21;154580.72;;;13.74;87.54
10127;BME280;13080;42.608;23.362;2023-09-19T00:12:50;154571.66;;;13.70;87.44
10127;BME280;13080;42.608;23.362;2023-09-19T00:15:18;154567.72;;;13.69;88.12
10127;BME280;13080;42.608;23.362;2023-09-19T00:17:47;154562.50;;;13.67;88.87
10127;BME280;13080;42.608;23.362;2023-09-19T00:20:14;154554.72;;;13.64;89.07
10127;BME280;13080;42.608;23.362;2023-09-19T00:22:42;154541.72;;;13.59;89.41
10127;BME280;13080;42.608;23.362;2023-09-19T00:25:09;154532.59;;;13.55;89.54
10127;BME280;13080;42.608;23.362;2023-09-19T00:27:37;154515.66;;;13.48;90.26
10127;BME280;13080;42.608;23.362;2023-09-19T00:30:07;154519.59;;;13.50;89.65
10127;BME280;13080;42.608;23.362;2023-09-19T00:32:40;154505.25;;;13.44;90.64
10127;BME280;13080;42.608;23.362;2023-09-19T00:35:08;154500.03;;;13.42;91.35
10127;BME280;13080;42.608;23.362;2023-09-19T00:37:36;154489.59;;;13.38;90.66
10127;BME280;13080;42.608;23.362;2023-09-19T00:40:06;154462.28;;;13.27;91.12
10127;BME280;13080;42.608;23.362;2023-09-19T00:42:37;154444.00;;;13.20;91.11
10127;BME280;13080;42.608;23.362;2023-09-19T00:45:05;154429.72;;;13.15;90.64
10127;BME280;13080;42.608;23.362;2023-09-19T00:47:32;154412.81;;;13.08;90.90
10127;BME280;13080;42.608;23.362;2023-09-19T00:49:59;154408.88;;;13.06;91.78
10127;BME280;13080;42.608;23.362;2023-09-19T00:52:30;154394.59;;;13.01;93.29
10127;BME280;13080;42.608;23.362;2023-09-19T00:54:57;154385.47;;;12.97;93.79
10127;BME280;13080;42.608;23.362;2023-09-19T00:57:25;154380.25;;;12.95;93.45
10127;BME280;13080;42.608;23.362;2023-09-19T00:59:53;154377.69;;;12.94;93.06
10127;BME280;13080;42.608;23.362;2023-09-19T01:02:21;154367.25;;;12.90;93.91
10127;BME280;13080;42.608;23.362;2023-09-19T01:04:48;154358.13;;;12.86;93.52
10127;BME280;13080;42.608;23.362;2023-09-19T01:07:15;154360.78;;;12.87;94.00
10127;BME280;13080;42.608;23.362;2023-09-19T01:09:43;154364.63;;;12.89;92.86
10127;BME280;13080;42.608;23.362;2023-09-19T01:12:12;154352.94;;;12.84;94.12
10127;BME280;13080;42.608;23.362;2023-09-19T01:14:49;154347.72;;;12.82;93.80
10127;BME280;13080;42.608;23.362;2023-09-19T01:17:26;154350.34;;;12.83;94.38
10127;BME280;13080;42.608;23.362;2023-09-19T01:20:26;154339.94;;;12.79;94.05
10127;BME280;13080;42.608;23.362;2023-09-19T01:23:07;154325.66;;;12.74;93.40
10127;BME280;13080;42.608;23.362;2023-09-19T01:26:10;154323.03;;;12.73;93.41
10127;BME280;13080;42.608;23.362;2023-09-19T01:28:52;154306.13;;;12.66;93.77
10127;BME280;13080;42.608;23.362;2023-09-19T01:31:24;154298.31;;;12.63;94.48
10127;BME280;13080;42.608;23.362;2023-09-19T01:33:55;154286.63;;;12.58;94.43
10127;BME280;13080;42.608;23.362;2023-09-19T01:36:30;154272.28;;;12.53;94.55
10127;BME280;13080;42.608;23.362;2023-09-19T01:39:00;154251.50;;;12.44;94.91
10127;BME280;13080;42.608;23.362;2023-09-19T01:41:39;154229.41;;;12.36;95.24
10127;BME280;13080;42.608;23.362;2023-09-19T01:44:13;154216.34;;;12.31;95.38
10127;BME280;13080;42.608;23.362;2023-09-19T01:46:46;154198.16;;;12.23;96.01
10127;BME280;13080;42.608;23.362;2023-09-19T01:49:22;154185.16;;;12.18;96.65
10127;BME280;13080;42.608;23.362;2023-09-19T01:51:57;154170.84;;;12.13;97.22
10127;BME280;13080;42.608;23.362;2023-09-19T01:54:32;154166.97;;;12.11;97.80
10127;BME280;13080;42.608;23.362;2023-09-19T01:57:05;154161.78;;;12.09;97.42
10127;BME280;13080;42.608;23.362;2023-09-19T01:59:39;154151.38;;;12.05;98.66
10127;BME280;13080;42.608;23.362;2023-09-19T02:02:09;154140.94;;;12.01;98.94
10127;BME280;13080;42.608;23.362;2023-09-19T02:04:37;154138.38;;;12.00;98.79
10127;BME280;13080;42.608;23.362;2023-09-19T02:07:03;154126.69;;;11.95;99.33
10127;BME280;13080;42.608;23.362;2023-09-19T02:09:33;154122.75;;;11.94;100.00
10127;BME280;13080;42.608;23.362;2023-09-19T02:14:30;154092.81;;;11.82;100.00
10127;BME280;13080;42.608;23.362;2023-09-19T02:16:57;154083.69;;;11.78;100.00
10127;BME280;13080;42.608;23.362;2023-09-19T02:19:26;154077.22;;;11.76;100.00
10127;BME280;13080;42.608;23.362;2023-09-19T02:21:55;154065.50;;;11.71;100.00
10127;BME280;13080;42.608;23.362;2023-09-19T02:24:22;154064.22;;;11.71;100.00
10127;BME280;13080;42.608;23.362;2023-09-19T02:26:49;154064.22;;;11.71;100.00
10127;BME280;13080;42.608;23.362;2023-09-19T02:29:16;154057.72;;;11.68;100.00
10127;BME280;13080;42.608;23.362;2023-09-19T02:31:43;154066.81;;;11.72;100.00
10127;BME280;13080;42.608;23.362;2023-09-19T02:34:11;154062.88;;;11.70;100.00
10127;BME280;13080;42.608;23.362;2023-09-19T02:36:40;154052.53;;;11.66;100.00
10127;BME280;13080;42.608;23.362;2023-09-19T02:39:09;154055.09;;;11.67;100.00
10127;BME280;13080;42.608;23.362;2023-09-19T02:41:36;154047.31;;;11.64;100.00
10127;BME280;13080;42.608;23.362;2023-09-19T02:44:04;154039.50;;;11.61;100.00
10127;BME280;13080;42.608;23.362;2023-09-19T02:46:32;154033.00;;;11.58;100.00
10127;BME280;13080;42.608;23.362;2023-09-19T02:49:01;154031.72;;;11.58;100.00
10127;BME280;13080;42.608;23.362;2023-09-19T02:51:30;154029.09;;;11.57;100.00
10127;BME280;13080;42.608;23.362;2023-09-19T02:53:59;154023.94;;;11.55;100.00
10127;BME280;13080;42.608;23.362;2023-09-19T02:56:26;154013.53;;;11.51;100.00
10127;BME280;13080;42.608;23.362;2023-09-19T02:58:53;154005.69;;;11.48;100.00
10127;BME280;13080;42.608;23.362;2023-09-19T03:01:20;153991.44;;;11.42;100.00
10127;BME280;13080;42.608;23.362;2023-09-19T03:03:47;153979.72;;;11.37;100.00
10127;BME280;13080;42.608;23.362;2023-09-19T03:06:15;153968.03;;;11.33;100.00
10127;BME280;13080;42.608;23.362;2023-09-19T03:08:43;153953.72;;;11.27;100.00
10127;BME280;13080;42.608;23.362;2023-09-19T03:11:11;153943.31;;;11.23;100.00
10127;BME280;13080;42.608;23.362;2023-09-19T03:13:40;153938.13;;;11.21;100.00
10127;BME280;13080;42.608;23.362;2023-09-19T03:16:09;153931.63;;;11.18;100.00
10127;BME280;13080;42.608;23.362;2023-09-19T03:18:36;153926.44;;;11.16;100.00
10127;BME280;13080;42.608;23.362;2023-09-19T03:21:03;153939.47;;;11.21;100.00
10127;BME280;13080;42.608;23.362;2023-09-19T03:23:30;153930.34;;;11.18;100.00
10127;BME280;13080;42.608;23.362;2023-09-19T03:26:17;153929.06;;;11.17;100.00
10127;BME280;13080;42.608;23.362;2023-09-19T03:28:44;153919.94;;;11.14;100.00
10127;BME280;13080;42.608;23.362;2023-09-19T03:31:12;153923.84;;;11.15;100.00
10127;BME280;13080;42.608;23.362;2023-09-19T03:33:39;153918.66;;;11.13;100.00
10127;BME280;13080;42.608;23.362;2023-09-19T03:36:06;153916.06;;;11.12;100.00
10127;BME280;13080;42.608;23.362;2023-09-19T03:38:33;153914.75;;;11.12;100.00
10127;BME280;13080;42.608;23.362;2023-09-19T03:41:00;153913.44;;;11.11;100.00
10127;BME280;13080;42.608;23.362;2023-09-19T03:43:29;153922.56;;;11.15;100.00
10127;BME280;13080;42.608;23.362;2023-09-19T03:45:55;153918.66;;;11.13;100.00
10127;BME280;13080;42.608;23.362;2023-09-19T03:48:22;153925.13;;;11.16;100.00
10127;BME280;13080;42.608;23.362;2023-09-19T03:50:49;153919.94;;;11.14;100.00
10127;BME280;13080;42.608;23.362;2023-09-19T03:53:16;153914.75;;;11.12;100.00
10127;BME280;13080;42.608;23.362;2023-09-19T03:55:44;153904.38;;;11.08;100.00
10127;BME280;13080;42.608;23.362;2023-09-19T03:58:11;153899.19;;;11.06;100.00
10127;BME280;13080;42.608;23.362;2023-09-19T04:00:39;153896.56;;;11.05;100.00
10127;BME280;13080;42.608;23.362;2023-09-19T04:03:06;153891.34;;;11.02;100.00
10127;BME280;13080;42.608;23.362;2023-09-19T04:05:33;153900.47;;;11.06;100.00
10127;BME280;13080;42.608;23.362;2023-09-19T04:07:59;153899.19;;;11.06;100.00
10127;BME280;13080;42.608;23.362;2023-09-19T04:10:26;153908.25;;;11.09;100.00
10127;BME280;13080;42.608;23.362;2023-09-19T04:12:54;153916.06;;;11.12;100.00
10127;BME280;13080;42.608;23.362;2023-09-19T04:15:21;153935.53;;;11.20;100.00
10127;BME280;13080;42.608;23.362;2023-09-19T04:17:50;153934.25;;;11.19;100.00
10127;BME280;13080;42.608;23.362;2023-09-19T04:20:17;153935.53;;;11.20;100.00
10127;BME280;13080;42.608;23.362;2023-09-19T04:22:45;153938.13;;;11.21;100.00
10127;BME280;13080;42.608;23.362;2023-09-19T04:25:12;153932.97;;;11.19;100.00
10127;BME280;13080;42.608;23.362;2023-09-19T04:27:39;153939.47;;;11.21;100.00
10127;BME280;13080;42.608;23.362;2023-09-19T04:30:07;153948.53;;;11.25;100.00
10127;BME280;13080;42.608;23.362;2023-09-19T04:32:37;153983.59;;;11.39;100.00
10127;BME280;13080;42.608;23.362;2023-09-19T04:35:07;153990.13;;;11.41;100.00
10127;BME280;13080;42.608;23.362;2023-09-19T04:37:37;154008.31;;;11.49;100.00
10127;BME280;13080;42.608;23.362;2023-09-19T04:40:06;154018.72;;;11.53;100.00
10127;BME280;13080;42.608;23.362;2023-09-19T04:42:38;154039.50;;;11.61;100.00
10127;BME280;13080;42.608;23.362;2023-09-19T04:45:06;154049.91;;;11.65;100.00
10127;BME280;13080;42.608;23.362;2023-09-19T04:47:34;154066.81;;;11.72;100.00
10127;BME280;13080;42.608;23.362;2023-09-19T04:50:08;154086.31;;;11.79;100.00
10127;BME280;13080;42.608;23.362;2023-09-19T04:52:39;154105.81;;;11.87;100.00
10127;BME280;13080;42.608;23.362;2023-09-19T04:55:08;154129.25;;;11.96;100.00
10127;BME280;13080;42.608;23.362;2023-09-19T04:57:35;154143.59;;;12.02;100.00
10127;BME280;13080;42.608;23.362;2023-09-19T05:00:05;154173.47;;;12.14;100.00
10127;BME280;13080;42.608;23.362;2023-09-19T05:02:38;154198.16;;;12.23;100.00
10127;BME280;13080;42.608;23.362;2023-09-19T05:05:07;154221.56;;;12.33;100.00
10127;BME280;13080;42.608;23.362;2023-09-19T05:07:36;154250.19;;;12.44;100.00
10127;BME280;13080;42.608;23.362;2023-09-19T05:10:03;154277.50;;;12.55;100.00
10127;BME280;13080;42.608;23.362;2023-09-19T05:12:33;154307.41;;;12.66;100.00
10127;BME280;13080;42.608;23.362;2023-09-19T05:15:00;154345.16;;;12.81;100.00
10127;BME280;13080;42.608;23.362;2023-09-19T05:17:26;154382.91;;;12.96;100.00
10127;BME280;13080;42.608;23.362;2023-09-19T05:19:53;154425.81;;;13.13;99.32
10127;BME280;13080;42.608;23.362;2023-09-19T05:22:21;154460.94;;;13.27;99.37
10127;BME280;13080;42.608;23.362;2023-09-19T05:24:50;154509.16;;;13.46;96.75
10127;BME280;13080;42.608;23.362;2023-09-19T05:27:18;154561.22;;;13.66;95.73
10127;BME280;13080;42.608;23.362;2023-09-19T05:29:46;154618.50;;;13.89;95.90
10127;BME280;13080;42.608;23.362;2023-09-19T05:32:14;154647.16;;;14.00;94.67
10127;BME280;13080;42.608;23.362;2023-09-19T05:34:41;154682.28;;;14.14;94.61
10127;BME280;13080;42.608;23.362;2023-09-19T05:37:08;154713.56;;;14.26;93.08
10127;BME280;13080;42.608;23.362;2023-09-19T05:39:36;154751.31;;;14.41;92.31
10127;BME280;13080;42.608;23.362;2023-09-19T05:42:04;154785.22;;;14.54;91.23
10127;BME280;13080;42.608;23.362;2023-09-19T05:44:30;154816.50;;;14.67;90.13
10127;BME280;13080;42.608;23.362;2023-09-19T05:46:58;154849.03;;;14.80;88.86
10127;BME280;13080;42.608;23.362;2023-09-19T05:49:25;154890.78;;;14.96;87.76
10127;BME280;13080;42.608;23.362;2023-09-19T05:51:52;154927.25;;;15.10;87.93
10127;BME280;13080;42.608;23.362;2023-09-19T05:54:21;154975.47;;;15.29;85.99
10127;BME280;13080;42.608;23.362;2023-09-19T05:56:50;155018.47;;;15.46;85.42
10127;BME280;13080;42.608;23.362;2023-09-19T05:59:18;155056.28;;;15.61;85.58
10127;BME280;13080;42.608;23.362;2023-09-19T06:01:45;155061.50;;;15.63;85.41
10127;BME280;13080;42.608;23.362;2023-09-19T06:04:12;155045.84;;;15.57;85.32
10127;BME280;13080;42.608;23.362;2023-09-19T06:06:39;155065.38;;;15.65;85.69
10127;BME280;13080;42.608;23.362;2023-09-19T06:09:06;155071.94;;;15.67;84.81
10127;BME280;13080;42.608;23.362;2023-09-19T06:11:34;155096.75;;;15.77;84.69
10127;BME280;13080;42.608;23.362;2023-09-19T06:14:02;155098.03;;;15.77;83.33
10127;BME280;13080;42.608;23.362;2023-09-19T06:16:29;155103.25;;;15.79;84.08
10127;BME280;13080;42.608;23.362;2023-09-19T06:18:57;155113.69;;;15.84;85.01
10127;BME280;13080;42.608;23.362;2023-09-19T06:21:25;155111.06;;;15.83;85.21
10127;BME280;13080;42.608;23.362;2023-09-19T06:23:52;155122.78;;;15.87;84.61
10127;BME280;13080;42.608;23.362;2023-09-19T06:26:19;155139.75;;;15.94;83.33
10127;BME280;13080;42.608;23.362;2023-09-19T06:28:46;155169.75;;;16.06;83.79
10127;BME280;13080;42.608;23.362;2023-09-19T06:31:14;155178.88;;;16.09;83.89
10127;BME280;13080;42.608;23.362;2023-09-19T06:33:41;155221.91;;;16.26;81.88
10127;BME280;13080;42.608;23.362;2023-09-19T06:36:08;155224.50;;;16.27;82.02
10127;BME280;13080;42.608;23.362;2023-09-19T06:38:35;155255.84;;;16.39;81.05
10127;BME280;13080;42.608;23.362;2023-09-19T06:41:02;155279.31;;;16.49;81.52
10127;BME280;13080;42.608;23.362;2023-09-19T06:43:32;155322.31;;;16.66;80.45
10127;BME280;13080;42.608;23.362;2023-09-19T06:45:59;155339.28;;;16.72;80.85
10127;BME280;13080;42.608;23.362;2023-09-19T06:48:27;155362.81;;;16.81;79.25
10127;BME280;13080;42.608;23.362;2023-09-19T06:50:56;155386.34;;;16.91;80.63
10127;BME280;13080;42.608;23.362;2023-09-19T06:53:23;155391.56;;;16.93;79.30
10127;BME280;13080;42.608;23.362;2023-09-19T06:55:50;155388.94;;;16.92;79.04
10127;BME280;13080;42.608;23.362;2023-09-19T06:58:17;155378.47;;;16.88;77.60
10127;BME280;13080;42.608;23.362;2023-09-19T07:00:44;155400.66;;;16.96;78.57
10127;BME280;13080;42.608;23.362;2023-09-19T07:03:13;155408.47;;;16.99;78.46
10127;BME280;13080;42.608;23.362;2023-09-19T07:05:43;155459.38;;;17.19;76.94
10127;BME280;13080;42.608;23.362;2023-09-19T07:08:10;155478.97;;;17.27;76.16
10127;BME280;13080;42.608;23.362;2023-09-19T07:10:38;155441.13;;;17.12;77.04
10127;BME280;13080;42.608;23.362;2023-09-19T07:13:07;155426.78;;;17.07;78.42
10127;BME280;13080;42.608;23.362;2023-09-19T07:15:37;155446.34;;;17.14;77.02
10127;BME280;13080;42.608;23.362;2023-09-19T07:18:05;155485.50;;;17.30;77.04
10127;BME280;13080;42.608;23.362;2023-09-19T07:20:32;155529.88;;;17.47;77.04
10127;BME280;13080;42.608;23.362;2023-09-19T07:23:01;155596.41;;;17.73;75.67
10127;BME280;13080;42.608;23.362;2023-09-19T07:25:28;155660.47;;;17.98;74.82
10127;BME280;13080;42.608;23.362;2023-09-19T07:27:56;155626.53;;;17.85;75.27
10127;BME280;13080;42.608;23.362;2023-09-19T07:30:25;155589.91;;;17.71;76.53
10127;BME280;13080;42.608;23.362;2023-09-19T07:32:52;155623.91;;;17.84;75.63
10127;BME280;13080;42.608;23.362;2023-09-19T07:35:19;155610.81;;;17.79;76.46
10127;BME280;13080;42.608;23.362;2023-09-19T07:37:46;155618.66;;;17.82;75.10
10127;BME280;13080;42.608;23.362;2023-09-19T07:40:16;155639.56;;;17.90;74.91
10127;BME280;13080;42.608;23.362;2023-09-19T07:42:43;155660.47;;;17.98;73.79
10127;BME280;13080;42.608;23.362;2023-09-19T07:45:12;155693.09;;;18.11;72.76
10127;BME280;13080;42.608;23.362;2023-09-19T07:47:44;155639.56;;;17.90;73.28
10127;BME280;13080;42.608;23.362;2023-09-19T07:50:11;155627.81;;;17.85;74.59
10127;BME280;13080;42.608;23.362;2023-09-19T07:52:37;155676.13;;;18.04;74.01
10127;BME280;13080;42.608;23.362;2023-09-19T07:55:06;155691.81;;;18.11;74.43
10127;BME280;13080;42.608;23.362;2023-09-19T07:57:35;155695.72;;;18.12;74.48
10127;BME280;13080;42.608;23.362;2023-09-19T08:00:03;155683.97;;;18.07;73.39
10127;BME280;13080;42.608;23.362;2023-09-19T08:02:34;155629.13;;;17.86;73.98
10127;BME280;13080;42.608;23.362;2023-09-19T08:05:03;155660.47;;;17.98;74.00
10127;BME280;13080;42.608;23.362;2023-09-19T08:07:32;155629.13;;;17.86;74.43
10127;BME280;13080;42.608;23.362;2023-09-19T08:09:58;155663.06;;;17.99;75.98
10127;BME280;13080;42.608;23.362;2023-09-19T08:12:25;155715.28;;;18.20;73.48
10127;BME280;13080;42.608;23.362;2023-09-19T08:14:53;155697.03;;;18.13;74.48
10127;BME280;13080;42.608;23.362;2023-09-19T08:17:20;155702.25;;;18.15;72.74
10127;BME280;13080;42.608;23.362;2023-09-19T08:19:48;155685.28;;;18.08;73.26
10127;BME280;13080;42.608;23.362;2023-09-19T08:22:18;155691.81;;;18.11;73.62
10127;BME280;13080;42.608;23.362;2023-09-19T08:24:45;155707.47;;;18.17;73.62
10127;BME280;13080;42.608;23.362;2023-09-19T08:27:13;155716.59;;;18.20;73.08
10127;BME280;13080;42.608;23.362;2023-09-19T08:29:40;155767.53;;;18.40;73.55
10127;BME280;13080;42.608;23.362;2023-09-19T08:32:09;155759.72;;;18.37;73.92
10127;BME280;13080;42.608;23.362;2023-09-19T08:34:36;155770.16;;;18.41;72.99
10127;BME280;13080;42.608;23.362;2023-09-19T08:37:04;155784.50;;;18.47;73.40
10127;BME280;13080;42.608;23.362;2023-09-19T08:39:31;155834.16;;;18.66;71.52
10127;BME280;13080;42.608;23.362;2023-09-19T08:41:59;155840.69;;;18.69;72.54
10127;BME280;13080;42.608;23.362;2023-09-19T08:44:26;155823.69;;;18.62;72.14
10127;BME280;13080;42.608;23.362;2023-09-19T08:47:01;155840.69;;;18.69;71.93
10127;BME280;13080;42.608;23.362;2023-09-19T08:49:41;155912.59;;;18.97;72.86
10127;BME280;13080;42.608;23.362;2023-09-19T08:52:20;155968.81;;;19.19;70.96
10127;BME280;13080;42.608;23.362;2023-09-19T08:54:51;156006.66;;;19.34;70.46
10127;BME280;13080;42.608;23.362;2023-09-19T08:57:19;156038.06;;;19.46;71.19
10127;BME280;13080;42.608;23.362;2023-09-19T08:59:48;156065.47;;;19.57;69.50
10127;BME280;13080;42.608;23.362;2023-09-19T09:02:15;156094.22;;;19.68;69.39
10127;BME280;13080;42.608;23.362;2023-09-19T09:04:46;156082.47;;;19.64;69.07
10127;BME280;13080;42.608;23.362;2023-09-19T09:07:14;156115.22;;;19.77;69.26
10127;BME280;13080;42.608;23.362;2023-09-19T09:09:42;156141.38;;;19.87;68.79
10127;BME280;13080;42.608;23.362;2023-09-19T09:12:11;156168.78;;;19.98;68.48
10127;BME280;13080;42.608;23.362;2023-09-19T09:14:39;156145.25;;;19.88;67.09
10127;BME280;13080;42.608;23.362;2023-09-19T09:17:06;156174.03;;;20.00;67.80
10127;BME280;13080;42.608;23.362;2023-09-19T09:19:34;156160.97;;;19.94;69.62
10127;BME280;13080;42.608;23.362;2023-09-19T09:22:10;156205.44;;;20.12;68.87
10127;BME280;13080;42.608;23.362;2023-09-19T09:24:38;156204.13;;;20.11;68.12
10127;BME280;13080;42.608;23.362;2023-09-19T09:27:19;156228.97;;;20.21;66.98
10127;BME280;13080;42.608;23.362;2023-09-19T09:29:49;156221.13;;;20.18;66.75
10127;BME280;13080;42.608;23.362;2023-09-19T09:32:20;156245.97;;;20.28;65.53
10127;BME280;13080;42.608;23.362;2023-09-19T09:34:50;156210.66;;;20.14;67.43
10127;BME280;13080;42.608;23.362;2023-09-19T09:37:19;156308.75;;;20.52;68.48
10127;BME280;13080;42.608;23.362;2023-09-19T09:39:50;156348.03;;;20.68;69.84
10127;BME280;13080;42.608;23.362;2023-09-19T09:42:32;156382.03;;;20.81;66.94
10127;BME280;13080;42.608;23.362;2023-09-19T09:45:17;156401.66;;;20.89;65.29
10127;BME280;13080;42.608;23.362;2023-09-19T09:47:46;156405.59;;;20.90;66.47
10127;BME280;13080;42.608;23.362;2023-09-19T09:50:29;156412.13;;;20.93;66.73
10127;BME280;13080;42.608;23.362;2023-09-19T09:53:24;156421.28;;;20.96;65.36
10127;BME280;13080;42.608;23.362;2023-09-19T09:55:58;156481.47;;;21.20;65.94
10127;BME280;13080;42.608;23.362;2023-09-19T09:58:26;156494.53;;;21.25;62.89
10127;BME280;13080;42.608;23.362;2023-09-19T10:00:55;156525.97;;;21.37;63.98
10127;BME280;13080;42.608;23.362;2023-09-19T10:03:31;156573.13;;;21.56;63.51
10127;BME280;13080;42.608;23.362;2023-09-19T10:06:00;156571.81;;;21.55;65.32
10127;BME280;13080;42.608;23.362;2023-09-19T10:08:39;156601.91;;;21.67;61.98
10127;BME280;13080;42.608;23.362;2023-09-19T10:11:17;156603.19;;;21.68;63.17
10127;BME280;13080;42.608;23.362;2023-09-19T10:13:46;156629.41;;;21.78;61.51
10127;BME280;13080;42.608;23.362;2023-09-19T10:16:13;156622.88;;;21.75;61.68
10127;BME280;13080;42.608;23.362;2023-09-19T10:18:44;156609.75;;;21.70;60.44
10127;BME280;13080;42.608;23.362;2023-09-19T10:21:12;156570.50;;;21.55;61.15
10127;BME280;13080;42.608;23.362;2023-09-19T10:23:42;156557.38;;;21.50;61.66
10127;BME280;13080;42.608;23.362;2023-09-19T10:26:11;156575.75;;;21.57;62.57
10127;BME280;13080;42.608;23.362;2023-09-19T10:28:38;156558.75;;;21.50;61.11
10127;BME280;13080;42.608;23.362;2023-09-19T10:31:06;156584.88;;;21.61;62.94
10127;BME280;13080;42.608;23.362;2023-09-19T10:33:36;156596.66;;;21.65;62.46
10127;BME280;13080;42.608;23.362;2023-09-19T10:36:05;156626.75;;;21.77;61.03
10127;BME280;13080;42.608;23.362;2023-09-19T10:38:33;156638.59;;;21.82;60.56
10127;BME280;13080;42.608;23.362;2023-09-19T10:41:03;156692.25;;;22.03;61.49
10127;BME280;13080;42.608;23.362;2023-09-19T10:43:32;156715.81;;;22.12;60.58
10127;BME280;13080;42.608;23.362;2023-09-19T10:46:02;156711.84;;;22.10;59.19
10127;BME280;13080;42.608;23.362;2023-09-19T10:48:31;156676.50;;;21.96;59.19
10127;BME280;13080;42.608;23.362;2023-09-19T10:51:04;156694.84;;;22.04;59.78
10127;BME280;13080;42.608;23.362;2023-09-19T10:53:43;156660.78;;;21.90;60.16
10127;BME280;13080;42.608;23.362;2023-09-19T10:56:17;156658.19;;;21.89;59.99
10127;BME280;13080;42.608;23.362;2023-09-19T10:58:45;156680.47;;;21.98;60.29
10127;BME280;13080;42.608;23.362;2023-09-19T11:01:13;156634.66;;;21.80;59.88
10127;BME280;13080;42.608;23.362;2023-09-19T11:03:41;156638.59;;;21.82;61.32
10127;BME280;13080;42.608;23.362;2023-09-19T11:06:12;156660.78;;;21.90;61.73
10127;BME280;13080;42.608;23.362;2023-09-19T11:08:55;156687.00;;;22.00;61.43
10127;BME280;13080;42.608;23.362;2023-09-19T11:11:41;156731.53;;;22.18;61.30
10127;BME280;13080;42.608;23.362;2023-09-19T11:14:14;156769.50;;;22.33;61.00
10127;BME280;13080;42.608;23.362;2023-09-19T11:20:22;156827.13;;;22.55;58.24
10127;BME280;13080;42.608;23.362;2023-09-19T11:23:22;156837.59;;;22.59;59.81
10127;BME280;13080;42.608;23.362;2023-09-19T11:25:51;156855.94;;;22.67;58.62
10127;BME280;13080;42.608;23.362;2023-09-19T11:28:36;156844.16;;;22.62;60.19
10127;BME280;13080;42.608;23.362;2023-09-19T11:38:00;156884.75;;;22.78;60.46
10127;BME280;13080;42.608;23.362;2023-09-19T11:40:45;156865.13;;;22.70;58.75
10127;BME280;13080;42.608;23.362;2023-09-19T11:43:30;156814.03;;;22.50;58.57
10127;BME280;13080;42.608;23.362;2023-09-19T11:46:09;156816.69;;;22.51;61.69
10127;BME280;13080;42.608;23.362;2023-09-19T11:48:38;156867.78;;;22.71;59.04
10127;BME280;13080;42.608;23.362;2023-09-19T11:51:14;156827.13;;;22.55;58.36
10127;BME280;13080;42.608;23.362;2023-09-19T11:53:45;156777.41;;;22.36;60.42
10127;BME280;13080;42.608;23.362;2023-09-19T11:56:15;156787.88;;;22.40;60.31
10127;BME280;13080;42.608;23.362;2023-09-19T11:58:43;156790.47;;;22.41;59.10
10127;BME280;13080;42.608;23.362;2023-09-19T12:01:13;156782.63;;;22.38;59.09
10127;BME280;13080;42.608;23.362;2023-09-19T12:03:47;156783.94;;;22.38;59.60
10127;BME280;13080;42.608;23.362;2023-09-19T12:06:15;156804.91;;;22.47;59.30
10127;BME280;13080;42.608;23.362;2023-09-19T12:08:42;156781.28;;;22.37;59.87
10127;BME280;13080;42.608;23.362;2023-09-19T12:11:13;156745.94;;;22.24;60.35
10127;BME280;13080;42.608;23.362;2023-09-19T12:13:42;156743.34;;;22.23;60.36
10127;BME280;13080;42.608;23.362;2023-09-19T12:16:15;156749.88;;;22.25;60.86
10127;BME280;13080;42.608;23.362;2023-09-19T12:18:44;156759.06;;;22.29;60.91
10127;BME280;13080;42.608;23.362;2023-09-19T12:21:25;156760.38;;;22.29;60.68
10127;BME280;13080;42.608;23.362;2023-09-19T12:24:03;156769.50;;;22.33;59.58
10127;BME280;13080;42.608;23.362;2023-09-19T12:26:37;156743.34;;;22.23;60.80
10127;BME280;13080;42.608;23.362;2023-09-19T12:29:05;156706.59;;;22.08;59.69
10127;BME280;13080;42.608;23.362;2023-09-19T12:31:34;156669.97;;;21.94;61.09
10127;BME280;13080;42.608;23.362;2023-09-19T12:34:02;156656.91;;;21.89;62.48
10127;BME280;13080;42.608;23.362;2023-09-19T12:36:30;156656.91;;;21.89;61.59
10127;BME280;13080;42.608;23.362;2023-09-19T12:38:59;156656.91;;;21.89;61.59
10127;BME280;13080;42.608;23.362;2023-09-19T12:41:26;156676.50;;;21.96;61.21
10127;BME280;13080;42.608;23.362;2023-09-19T12:43:54;156651.66;;;21.87;61.11
10127;BME280;13080;42.608;23.362;2023-09-19T12:46:21;156649.00;;;21.86;62.08
10127;BME280;13080;42.608;23.362;2023-09-19T12:51:43;156681.75;;;21.98;62.37
10127;BME280;13080;42.608;23.362;2023-09-19T12:54:10;156700.06;;;22.06;61.88
10127;BME280;13080;42.608;23.362;2023-09-19T12:56:39;156717.09;;;22.12;60.78
10127;BME280;13080;42.608;23.362;2023-09-19T12:59:09;156730.22;;;22.17;60.67
10127;BME280;13080;42.608;23.362;2023-09-19T13:01:39;156738.06;;;22.20;60.18
10127;BME280;13080;42.608;23.362;2023-09-19T13:04:13;156722.34;;;22.14;60.83
10127;BME280;13080;42.608;23.362;2023-09-19T13:06:43;156705.31;;;22.08;60.54